sensor_id;sensor_type;location;lat;lon;timestamp;temperature;humidity
74534;SHT31;63012;51.096;-115.366;2022-12-07T18:38:28;-1.59;63.48
74534;SHT31;63012;51.096;-115.366;2022-12-07T18:40:56;-1.58;63.44
74534;SHT31;63012;51.096;-115.366;2022-12-07T18:43:24;-1.61;63.56
74534;SHT31;63012;51.096;-115.366;2022-12-07T18:45:52;-1.60;63.17
74534;SHT31;63012;51.096;-115.366;2022-12-07T18:48:20;-1.59;62.78
74534;SHT31;63012;51.096;-115.366;2022-12-07T18:50:58;-1.60;62.96
74534;SHT31;63012;51.096;-115.366;2022-12-07T18:53:28;-1.65;63.40
74534;SHT31;63012;51.096;-115.366;2022-12-07T18:56:03;-1.70;63.49
74534;SHT31;63012;51.096;-115.366;2022-12-07T18:58:43;-1.77;63.99
74534;SHT31;63012;51.096;-115.366;2022-12-07T19:01:38;-1.82;63.78
74534;SHT31;63012;51.096;-115.366;2022-12-07T19:04:08;-1.83;63.34
74534;SHT31;63012;51.096;-115.366;2022-12-07T19:06:36;-1.85;63.73
74534;SHT31;63012;51.096;-115.366;2022-12-07T19:09:05;-1.89;64.18
74534;SHT31;63012;51.096;-115.366;2022-12-07T19:11:32;-1.90;64.57
74534;SHT31;63012;51.096;-115.366;2022-12-07T19:14:28;-1.91;64.48
74534;SHT31;63012;51.096;-115.366;2022-12-07T19:17:03;-1.86;64.68
74534;SHT31;63012;51.096;-115.366;2022-12-07T19:19:41;-1.82;64.16
74534;SHT31;63012;51.096;-115.366;2022-12-07T19:22:11;-1.72;63.51
74534;SHT31;63012;51.096;-115.366;2022-12-07T19:24:43;-1.67;64.01
74534;SHT31;63012;51.096;-115.366;2022-12-07T19:27:13;-1.63;64.14
74534;SHT31;63012;51.096;-115.366;2022-12-07T19:29:41;-1.61;63.32
74534;SHT31;63012;51.096;-115.366;2022-12-07T19:32:09;-1.60;63.31
74534;SHT31;63012;51.096;-115.366;2022-12-07T19:34:37;-1.59;64.12
74534;SHT31;63012;51.096;-115.366;2022-12-07T19:37:07;-1.58;64.23
74534;SHT31;63012;51.096;-115.366;2022-12-07T19:39:36;-1.50;63.28
74534;SHT31;63012;51.096;-115.366;2022-12-07T19:42:05;-1.43;63.06
74534;SHT31;63012;51.096;-115.366;2022-12-07T19:44:33;-1.34;62.71
74534;SHT31;63012;51.096;-115.366;2022-12-07T19:47:01;-1.29;63.21
74534;SHT31;63012;51.096;-115.366;2022-12-07T19:49:30;-1.29;63.03
74534;SHT31;63012;51.096;-115.366;2022-12-07T19:52:00;-1.25;62.92
74534;SHT31;63012;51.096;-115.366;2022-12-07T19:54:31;-1.24;63.04
74534;SHT31;63012;51.096;-115.366;2022-12-07T19:57:00;-1.27;62.98
74534;SHT31;63012;51.096;-115.366;2022-12-07T19:59:30;-1.25;61.96
74534;SHT31;63012;51.096;-115.366;2022-12-07T20:01:57;-1.22;62.43
74534;SHT31;63012;51.096;-115.366;2022-12-07T20:04:25;-1.28;63.68
74534;SHT31;63012;51.096;-115.366;2022-12-07T20:06:57;-1.31;63.88
74534;SHT31;63012;51.096;-115.366;2022-12-07T20:09:26;-1.32;64.06
74534;SHT31;63012;51.096;-115.366;2022-12-07T20:11:53;-1.23;61.94
74534;SHT31;63012;51.096;-115.366;2022-12-07T20:14:39;-1.02;60.72
74534;SHT31;63012;51.096;-115.366;2022-12-07T20:17:06;-0.87;61.74
74534;SHT31;63012;51.096;-115.366;2022-12-07T20:19:34;-0.82;62.81
74534;SHT31;63012;51.096;-115.366;2022-12-07T20:22:02;-0.73;61.56
74534;SHT31;63012;51.096;-115.366;2022-12-07T20:24:30;-0.62;61.59
74534;SHT31;63012;51.096;-115.366;2022-12-07T20:26:59;-0.54;61.60
74534;SHT31;63012;51.096;-115.366;2022-12-07T20:29:26;-0.48;61.36
74534;SHT31;63012;51.096;-115.366;2022-12-07T20:31:53;-0.41;61.52
74534;SHT31;63012;51.096;-115.366;2022-12-07T20:34:22;-0.36;61.19
74534;SHT31;63012;51.096;-115.366;2022-12-07T20:36:51;-0.31;60.26
74534;SHT31;63012;51.096;-115.366;2022-12-07T20:39:19;-0.28;61.36
74534;SHT31;63012;51.096;-115.366;2022-12-07T20:41:47;-0.27;60.45
74534;SHT31;63012;51.096;-115.366;2022-12-07T20:44:33;-0.25;60.90
74534;SHT31;63012;51.096;-115.366;2022-12-07T20:47:01;-0.27;62.04
74534;SHT31;63012;51.096;-115.366;2022-12-07T20:49:30;-0.31;61.84
74534;SHT31;63012;51.096;-115.366;2022-12-07T20:51:58;-0.28;60.94
74534;SHT31;63012;51.096;-115.366;2022-12-07T20:54:25;-0.27;61.18
74534;SHT31;63012;51.096;-115.366;2022-12-07T20:56:52;-0.27;61.51
74534;SHT31;63012;51.096;-115.366;2022-12-07T20:59:19;-0.28;61.09
74534;SHT31;63012;51.096;-115.366;2022-12-07T21:01:47;-0.29;60.90
74534;SHT31;63012;51.096;-115.366;2022-12-07T21:04:14;-0.30;61.10
74534;SHT31;63012;51.096;-115.366;2022-12-07T21:06:42;-0.34;61.14
74534;SHT31;63012;51.096;-115.366;2022-12-07T21:09:10;-0.36;61.83
74534;SHT31;63012;51.096;-115.366;2022-12-07T21:11:37;-0.38;60.35
74534;SHT31;63012;51.096;-115.366;2022-12-07T21:14:04;-0.34;60.34
74534;SHT31;63012;51.096;-115.366;2022-12-07T21:16:33;-0.33;61.39
74534;SHT31;63012;51.096;-115.366;2022-12-07T21:19:00;-0.36;62.13
74534;SHT31;63012;51.096;-115.366;2022-12-07T21:21:30;-0.39;61.81
74534;SHT31;63012;51.096;-115.366;2022-12-07T21:23:58;-0.37;60.84
74534;SHT31;63012;51.096;-115.366;2022-12-07T21:26:27;-0.34;61.02
74534;SHT31;63012;51.096;-115.366;2022-12-07T21:28:58;-0.34;61.92
74534;SHT31;63012;51.096;-115.366;2022-12-07T21:31:25;-0.33;61.82
74534;SHT31;63012;51.096;-115.366;2022-12-07T21:33:53;-0.37;62.43
74534;SHT31;63012;51.096;-115.366;2022-12-07T21:36:21;-0.35;62.06
74534;SHT31;63012;51.096;-115.366;2022-12-07T21:38:51;-0.32;62.29
74534;SHT31;63012;51.096;-115.366;2022-12-07T21:41:25;-0.32;62.55
74534;SHT31;63012;51.096;-115.366;2022-12-07T21:43:55;-0.30;62.20
74534;SHT31;63012;51.096;-115.366;2022-12-07T21:46:24;-0.31;62.16
74534;SHT31;63012;51.096;-115.366;2022-12-07T21:48:58;-0.35;62.28
74534;SHT31;63012;51.096;-115.366;2022-12-07T21:51:32;-0.40;62.58
74534;SHT31;63012;51.096;-115.366;2022-12-07T21:54:00;-0.46;62.57
74534;SHT31;63012;51.096;-115.366;2022-12-07T21:56:30;-0.52;62.73
74534;SHT31;63012;51.096;-115.366;2022-12-07T21:59:03;-0.57;62.74
74534;SHT31;63012;51.096;-115.366;2022-12-07T22:01:45;-0.62;63.01
74534;SHT31;63012;51.096;-115.366;2022-12-07T22:04:14;-0.66;62.81
74534;SHT31;63012;51.096;-115.366;2022-12-07T22:06:50;-0.68;63.34
74534;SHT31;63012;51.096;-115.366;2022-12-07T22:09:18;-0.71;63.61
74534;SHT31;63012;51.096;-115.366;2022-12-07T22:11:49;-0.74;63.54
74534;SHT31;63012;51.096;-115.366;2022-12-07T22:14:16;-0.74;63.72
74534;SHT31;63012;51.096;-115.366;2022-12-07T22:17:02;-0.74;63.09
74534;SHT31;63012;51.096;-115.366;2022-12-07T22:19:30;-0.70;63.02
74534;SHT31;63012;51.096;-115.366;2022-12-07T22:21:57;-0.69;63.53
74534;SHT31;63012;51.096;-115.366;2022-12-07T22:24:24;-0.69;63.45
74534;SHT31;63012;51.096;-115.366;2022-12-07T22:26:51;-0.70;63.78
74534;SHT31;63012;51.096;-115.366;2022-12-07T22:29:19;-0.72;63.87
74534;SHT31;63012;51.096;-115.366;2022-12-07T22:31:48;-0.74;63.49
74534;SHT31;63012;51.096;-115.366;2022-12-07T22:34:16;-0.73;63.47
74534;SHT31;63012;51.096;-115.366;2022-12-07T22:36:43;-0.76;63.83
74534;SHT31;63012;51.096;-115.366;2022-12-07T22:39:11;-0.79;63.95
74534;SHT31;63012;51.096;-115.366;2022-12-07T22:41:38;-0.80;63.46
74534;SHT31;63012;51.096;-115.366;2022-12-07T22:44:06;-0.80;63.56
74534;SHT31;63012;51.096;-115.366;2022-12-07T22:46:33;-0.77;63.38
74534;SHT31;63012;51.096;-115.366;2022-12-07T22:49:01;-0.79;63.91
74534;SHT31;63012;51.096;-115.366;2022-12-07T22:54:01;-0.81;63.48
74534;SHT31;63012;51.096;-115.366;2022-12-07T22:56:33;-0.83;63.97
74534;SHT31;63012;51.096;-115.366;2022-12-07T22:59:05;-0.85;63.46
74534;SHT31;63012;51.096;-115.366;2022-12-07T23:01:33;-0.86;63.93
74534;SHT31;63012;51.096;-115.366;2022-12-07T23:04:00;-0.88;63.47
74534;SHT31;63012;51.096;-115.366;2022-12-07T23:06:28;-0.86;63.10
74534;SHT31;63012;51.096;-115.366;2022-12-07T23:08:58;-0.86;62.82
74534;SHT31;63012;51.096;-115.366;2022-12-07T23:11:29;-0.88;63.18
74534;SHT31;63012;51.096;-115.366;2022-12-07T23:14:19;-0.91;63.34
74534;SHT31;63012;51.096;-115.366;2022-12-07T23:16:54;-0.94;63.76
74534;SHT31;63012;51.096;-115.366;2022-12-07T23:19:21;-0.99;63.62
74534;SHT31;63012;51.096;-115.366;2022-12-07T23:21:48;-1.03;63.69
74534;SHT31;63012;51.096;-115.366;2022-12-07T23:24:16;-1.08;63.90
74534;SHT31;63012;51.096;-115.366;2022-12-07T23:26:43;-1.12;64.08
74534;SHT31;63012;51.096;-115.366;2022-12-07T23:29:11;-1.19;64.43
74534;SHT31;63012;51.096;-115.366;2022-12-07T23:31:39;-1.24;64.45
74534;SHT31;63012;51.096;-115.366;2022-12-07T23:34:07;-1.29;64.52
74534;SHT31;63012;51.096;-115.366;2022-12-07T23:36:35;-1.36;64.87
74534;SHT31;63012;51.096;-115.366;2022-12-07T23:39:03;-1.39;64.63
74534;SHT31;63012;51.096;-115.366;2022-12-07T23:41:30;-1.41;64.64
74534;SHT31;63012;51.096;-115.366;2022-12-07T23:43:58;-1.42;64.92
74534;SHT31;63012;51.096;-115.366;2022-12-07T23:46:27;-1.46;65.00
74534;SHT31;63012;51.096;-115.366;2022-12-07T23:48:58;-1.48;65.21
74534;SHT31;63012;51.096;-115.366;2022-12-07T23:51:27;-1.54;65.79
74534;SHT31;63012;51.096;-115.366;2022-12-07T23:53:55;-1.60;66.17
74534;SHT31;63012;51.096;-115.366;2022-12-07T23:56:25;-1.65;65.70
74534;SHT31;63012;51.096;-115.366;2022-12-07T23:58:55;-1.64;65.44
